Time;durP1;ratioP1;P1;durP2;ratioP2;P2;SDS_P1;SDS_P2;PMS_P1;PMS_P2;Temp;Humidity;BMP_temperature;BMP_pressure;BME280_temperature;BME280_humidity;BME280_pressure;Samples;Min_cycle;Max_cycle;Signal;HPM_P1;HPM_P2
2021/01/06 00:00:57;;;;;;;4.93;1.00;;;3.30;99.90;;;;;;4947093;28;20094;-78
2021/01/06 00:03:24;;;;;;;1.92;0.40;;;3.30;99.90;;;;;;4948073;28;20138;-78
2021/01/06 00:05:50;;;;;;;3.15;0.77;;;3.30;99.90;;;;;;4945667;28;20605;-79
2021/01/06 00:08:13;;;;;;;2.15;0.95;;;3.30;99.90;;;;;;4948371;28;20087;-78
2021/01/06 00:10:36;;;;;;;4.53;0.95;;;3.30;99.90;;;;;;4948016;28;20170;-80
2021/01/06 00:12:59;;;;;;;3.20;0.68;;;3.20;99.90;;;;;;4946584;28;20608;-79
2021/01/06 00:15:25;;;;;;;3.13;0.57;;;3.20;99.90;;;;;;4947971;28;20095;-79
2021/01/06 00:17:47;;;;;;;1.73;0.52;;;3.10;99.90;;;;;;4947171;28;20117;-79
2021/01/06 00:20:13;;;;;;;2.20;0.60;;;3.10;99.90;;;;;;4920288;28;20089;-78
2021/01/06 00:22:35;;;;;;;2.80;0.63;;;3.10;99.90;;;;;;4928041;28;20540;-79
2021/01/06 00:24:58;;;;;;;1.60;0.80;;;3.10;99.90;;;;;;4928553;28;20173;-79
2021/01/06 00:27:21;;;;;;;3.03;0.80;;;3.10;99.90;;;;;;4930095;28;20094;-79
2021/01/06 00:29:44;;;;;;;2.17;0.85;;;3.10;99.90;;;;;;4931383;28;20194;-79
2021/01/06 00:32:07;;;;;;;1.17;0.45;;;3.10;99.90;;;;;;4919147;28;20092;-80
2021/01/06 00:34:30;;;;;;;1.70;0.40;;;3.10;99.90;;;;;;4928683;28;20199;-80
2021/01/06 00:36:54;;;;;;;1.70;0.60;;;;;;;;;;4929681;28;20175;-79
2021/01/06 00:39:16;;;;;;;3.97;0.70;;;3.10;99.90;;;;;;4928223;28;20097;-80
2021/01/06 00:41:39;;;;;;;4.05;0.80;;;3.10;99.90;;;;;;4947650;28;20091;-78
2021/01/06 00:44:03;;;;;;;3.70;0.88;;;3.10;99.90;;;;;;4948198;28;20629;-79
2021/01/06 00:46:31;;;;;;;1.65;0.82;;;3.10;99.90;;;;;;4947730;28;20522;-78
2021/01/06 00:48:53;;;;;;;5.82;1.13;;;3.10;99.90;;;;;;4946904;28;20091;-79
2021/01/06 00:51:16;;;;;;;4.75;1.17;;;3.10;99.90;;;;;;4947409;28;20249;-79
2021/01/06 00:53:40;;;;;;;3.45;1.10;;;;;;;;;;4947707;28;20113;-79
2021/01/06 00:56:03;;;;;;;4.68;0.98;;;3.10;99.90;;;;;;4946774;28;20091;-78
2021/01/06 00:58:26;;;;;;;8.32;1.02;;;3.00;99.90;;;;;;4947782;28;20101;-79
2021/01/06 01:00:49;;;;;;;2.33;1.10;;;3.00;99.90;;;;;;4947496;28;20638;-78
2021/01/06 01:03:12;;;;;;;1.70;0.93;;;3.00;99.90;;;;;;4947523;28;20095;-78
2021/01/06 01:05:37;;;;;;;8.90;1.77;;;2.90;99.90;;;;;;4915908;28;20521;-81
2021/01/06 01:08:01;;;;;;;2.72;1.08;;;2.90;99.90;;;;;;4947451;28;20184;-79
2021/01/06 01:10:30;;;;;;;7.05;1.23;;;2.90;99.90;;;;;;4947422;28;20149;-80
2021/01/06 01:12:53;;;;;;;2.63;1.40;;;2.80;99.90;;;;;;4949418;28;20097;-78
2021/01/06 01:15:16;;;;;;;5.97;1.30;;;2.80;99.90;;;;;;4949759;28;20093;-78
2021/01/06 01:17:39;;;;;;;2.90;1.15;;;2.80;99.90;;;;;;4951433;28;20162;-80
2021/01/06 01:20:01;;;;;;;3.78;1.25;;;2.80;99.90;;;;;;4950903;28;20121;-80
2021/01/06 01:22:24;;;;;;;3.92;1.23;;;2.80;99.90;;;;;;4948660;28;25124;-78
2021/01/06 01:24:47;;;;;;;3.50;1.00;;;2.70;99.90;;;;;;4951242;28;20103;-79
2021/01/06 01:27:10;;;;;;;4.57;0.90;;;2.70;99.90;;;;;;4950919;28;20511;-79
2021/01/06 01:29:33;;;;;;;5.82;1.40;;;2.70;99.90;;;;;;4951591;28;20186;-78
2021/01/06 01:31:56;;;;;;;6.32;1.75;;;2.70;99.90;;;;;;4950121;28;20171;-79
2021/01/06 01:34:18;;;;;;;5.45;1.40;;;2.60;99.90;;;;;;4950863;28;20101;-80
2021/01/06 01:36:47;;;;;;;6.72;0.98;;;2.60;99.90;;;;;;4950456;27;20139;-78
2021/01/06 01:39:10;;;;;;;6.53;1.27;;;2.60;99.90;;;;;;4949558;28;20092;-78
2021/01/06 01:41:33;;;;;;;2.67;1.50;;;2.60;99.90;;;;;;4935356;28;20079;-77
2021/01/06 01:43:58;;;;;;;2.05;1.13;;;2.60;99.90;;;;;;4926831;28;20185;-80
2021/01/06 01:46:49;;;;;;;2.83;0.90;;;2.60;99.90;;;;;;4938029;28;20097;-78
2021/01/06 01:49:19;;;;;;;2.40;1.00;;;2.60;99.90;;;;;;4924294;28;20091;-78
2021/01/06 01:51:47;;;;;;;2.70;0.55;;;2.60;99.90;;;;;;4947309;28;20134;-78
2021/01/06 01:54:14;;;;;;;1.90;0.60;;;2.60;99.90;;;;;;4947182;28;20193;-79
2021/01/06 01:56:44;;;;;;;2.42;0.50;;;2.60;99.90;;;;;;4947282;28;20621;-79
2021/01/06 01:59:16;;;;;;;2.17;0.60;;;2.60;99.90;;;;;;4949973;28;20277;-79
2021/01/06 02:01:39;;;;;;;0.98;0.38;;;2.60;99.90;;;;;;4947290;28;20460;-79
2021/01/06 02:04:08;;;;;;;1.08;0.30;;;2.60;99.90;;;;;;4950666;28;20607;-79
2021/01/06 02:06:37;;;;;;;3.60;1.27;;;2.60;99.90;;;;;;4949366;27;20175;-79
2021/01/06 02:09:05;;;;;;;2.53;0.63;;;2.60;99.90;;;;;;4950495;28;20111;-78
2021/01/06 02:11:34;;;;;;;9.30;0.38;;;2.50;99.90;;;;;;4948465;28;20084;-77
2021/01/06 02:14:04;;;;;;;4.10;0.55;;;2.50;99.90;;;;;;4950919;28;20490;-79
2021/01/06 02:16:38;;;;;;;5.78;0.55;;;2.40;99.90;;;;;;4949111;28;20086;-79
2021/01/06 02:19:01;;;;;;;1.20;0.30;;;;;;;;;;4946469;28;20574;-79
2021/01/06 02:21:27;;;;;;;1.20;0.63;;;2.30;99.90;;;;;;4948777;28;20576;-78
2021/01/06 02:23:52;;;;;;;0.98;0.70;;;2.30;99.90;;;;;;4948770;28;20546;-78
2021/01/06 02:26:15;;;;;;;6.80;0.80;;;2.30;99.90;;;;;;4949221;28;20086;-78
2021/01/06 02:28:38;;;;;;;1.35;0.40;;;2.30;99.90;;;;;;4940362;28;20188;-78
2021/01/06 02:31:01;;;;;;;4.03;1.17;;;2.30;99.90;;;;;;4949866;28;20093;-79
2021/01/06 02:33:24;;;;;;;3.20;0.60;;;2.30;99.90;;;;;;4949985;28;20184;-78
2021/01/06 02:35:49;;;;;;;2.22;0.90;;;2.20;99.90;;;;;;4951819;27;20097;-78
2021/01/06 02:38:13;;;;;;;1.10;0.52;;;2.20;99.90;;;;;;4948278;28;20103;-78
2021/01/06 02:40:36;;;;;;;2.55;0.65;;;2.20;99.90;;;;;;4949556;28;20570;-78
2021/01/06 02:42:59;;;;;;;2.05;0.68;;;2.20;99.90;;;;;;4947850;28;20179;-77
2021/01/06 02:45:22;;;;;;;1.60;0.60;;;2.00;99.90;;;;;;4950298;28;20552;-79
2021/01/06 02:47:49;;;;;;;1.55;0.60;;;1.90;99.90;;;;;;4941963;28;20139;-78
2021/01/06 02:50:15;;;;;;;2.75;0.70;;;1.80;99.90;;;;;;4946582;28;20184;-78
2021/01/06 02:52:43;;;;;;;1.48;0.60;;;1.70;99.90;;;;;;4949027;28;20167;-78
2021/01/06 02:55:10;;;;;;;2.92;0.60;;;1.70;99.90;;;;;;4936975;28;20112;-79
2021/01/06 02:57:35;;;;;;;3.05;0.63;;;1.70;99.90;;;;;;4931789;28;20098;-78
2021/01/06 02:59:58;;;;;;;0.85;0.40;;;1.70;99.90;;;;;;4947674;28;20181;-79
2021/01/06 03:02:23;;;;;;;2.13;0.47;;;1.70;99.90;;;;;;4948032;28;20170;-78
2021/01/06 03:04:53;;;;;;;1.40;0.57;;;1.70;99.90;;;;;;4947786;28;20203;-78
2021/01/06 03:07:17;;;;;;;2.58;0.63;;;1.60;99.90;;;;;;4947726;28;20550;-79
2021/01/06 03:09:41;;;;;;;1.23;0.40;;;1.60;99.90;;;;;;4949722;28;20100;-79
2021/01/06 03:12:10;;;;;;;0.60;0.30;;;1.50;99.90;;;;;;4947409;28;20123;-79
2021/01/06 03:14:35;;;;;;;0.40;0.25;;;1.50;99.90;;;;;;4925441;28;20654;-79
2021/01/06 03:17:00;;;;;;;0.63;0.22;;;1.40;99.90;;;;;;4946595;28;20181;-78
2021/01/06 03:19:27;;;;;;;1.80;0.20;;;1.40;99.90;;;;;;4938769;28;20507;-79
2021/01/06 03:21:51;;;;;;;2.88;0.82;;;1.30;99.90;;;;;;4936858;28;20091;-78
2021/01/06 03:24:14;;;;;;;1.80;0.57;;;1.20;99.90;;;;;;4924373;28;20090;-78
2021/01/06 03:26:38;;;;;;;0.43;0.22;;;1.20;99.90;;;;;;4927037;28;20108;-79
2021/01/06 03:29:02;;;;;;;5.47;0.35;;;1.20;99.90;;;;;;4933787;28;20181;-79
2021/01/06 03:31:35;;;;;;;2.20;0.60;;;1.20;99.90;;;;;;4933999;28;20615;-79
2021/01/06 03:34:02;;;;;;;1.83;0.35;;;1.20;99.90;;;;;;4943836;28;20090;-78
2021/01/06 03:36:31;;;;;;;1.10;0.60;;;1.10;99.90;;;;;;4947040;28;20187;-79
2021/01/06 03:38:59;;;;;;;1.02;0.40;;;1.10;99.90;;;;;;4947375;28;20148;-78
2021/01/06 03:41:22;;;;;;;0.63;0.38;;;1.10;99.90;;;;;;4948676;28;20575;-78
2021/01/06 03:43:51;;;;;;;1.98;0.63;;;1.10;99.90;;;;;;4948551;28;20103;-78
2021/01/06 03:46:21;;;;;;;1.00;0.40;;;1.00;99.90;;;;;;4947235;28;20099;-78
2021/01/06 03:48:58;;;;;;;4.28;0.55;;;1.00;99.90;;;;;;4946599;28;20193;-80
2021/01/06 03:51:29;;;;;;;1.05;0.40;;;1.00;99.90;;;;;;4947044;28;20115;-79
2021/01/06 03:53:57;;;;;;;0.75;0.38;;;1.00;99.90;;;;;;4930993;28;20584;-78
2021/01/06 03:56:24;;;;;;;1.33;0.40;;;1.00;99.90;;;;;;4932645;28;20175;-79
2021/01/06 03:58:53;;;;;;;1.08;0.30;;;1.00;99.90;;;;;;4947547;28;20456;-78
2021/01/06 04:01:41;;;;;;;0.77;0.40;;;1.00;99.90;;;;;;4946260;28;20098;-78
2021/01/06 04:04:11;;;;;;;1.30;0.60;;;1.00;99.90;;;;;;4943787;28;20088;-80
2021/01/06 04:06:37;;;;;;;1.42;0.60;;;0.90;99.90;;;;;;4947633;27;20495;-80
2021/01/06 04:09:04;;;;;;;1.60;0.55;;;0.90;99.90;;;;;;4947463;28;20099;-80
2021/01/06 04:11:32;;;;;;;0.40;0.20;;;0.90;99.90;;;;;;4947870;28;20199;-79
2021/01/06 04:13:56;;;;;;;2.58;0.40;;;0.80;99.90;;;;;;4946948;28;20222;-80
2021/01/06 04:16:19;;;;;;;3.60;0.43;;;0.80;99.90;;;;;;4946591;28;20137;-79
2021/01/06 04:18:45;;;;;;;0.88;0.20;;;0.90;99.90;;;;;;4947887;28;20694;-80
2021/01/06 04:21:08;;;;;;;2.28;0.30;;;0.80;99.90;;;;;;4948911;28;20136;-80
2021/01/06 04:23:31;;;;;;;0.98;0.30;;;0.80;99.90;;;;;;4945880;28;20094;-80
2021/01/06 04:25:54;;;;;;;0.63;0.30;;;0.90;99.90;;;;;;4947831;28;20170;-80
2021/01/06 04:28:19;;;;;;;3.65;0.63;;;0.90;99.90;;;;;;4947251;28;20121;-78
2021/01/06 04:30:45;;;;;;;1.15;0.32;;;0.90;99.90;;;;;;4948049;28;20093;-80
2021/01/06 04:33:11;;;;;;;0.93;0.25;;;0.90;99.90;;;;;;4947240;28;20098;-80
2021/01/06 04:35:35;;;;;;;0.20;0.10;;;;;;;;;;4948285;28;20102;-79
2021/01/06 04:37:59;;;;;;;0.68;0.22;;;0.90;99.90;;;;;;4948243;28;20526;-79
2021/01/06 04:40:24;;;;;;;2.85;0.60;;;0.90;99.90;;;;;;4945726;28;20090;-80
2021/01/06 04:42:47;;;;;;;0.28;0.20;;;0.90;99.90;;;;;;4945702;28;20116;-80
2021/01/06 04:45:15;;;;;;;1.00;0.28;;;0.90;99.90;;;;;;4947617;28;20165;-79
2021/01/06 04:48:03;;;;;;;0.28;0.13;;;0.90;99.90;;;;;;4949613;28;20573;-80
2021/01/06 04:50:59;;;;;;;0.10;0.10;;;0.80;99.90;;;;;;4931409;28;20087;-80
2021/01/06 04:53:37;;;;;;;0.17;0.17;;;0.90;99.90;;;;;;4915404;28;20523;-80
2021/01/06 04:56:16;;;;;;;2.03;0.30;;;0.90;99.90;;;;;;4933869;28;20172;-79
2021/01/06 04:58:49;;;;;;;0.55;0.20;;;0.90;99.90;;;;;;4948083;28;20092;-79
2021/01/06 05:01:32;;;;;;;4.75;0.10;;;0.90;99.90;;;;;;4934088;28;20180;-80
2021/01/06 05:04:19;;;;;;;0.77;0.13;;;0.90;99.90;;;;;;4950381;28;20537;-81
2021/01/06 05:06:49;;;;;;;0.10;0.10;;;0.90;99.90;;;;;;4933482;28;20167;-79
2021/01/06 05:09:20;;;;;;;0.10;0.10;;;0.90;99.90;;;;;;4940964;28;20116;-79
2021/01/06 05:11:55;;;;;;;0.20;0.17;;;0.90;99.90;;;;;;4949707;28;20094;-79
2021/01/06 05:14:22;;;;;;;4.75;0.65;;;1.00;99.90;;;;;;4949612;28;20782;-80
2021/01/06 05:16:47;;;;;;;0.85;0.20;;;1.00;99.90;;;;;;4951955;28;20501;-80
2021/01/06 05:19:16;;;;;;;0.23;0.17;;;1.00;99.90;;;;;;4949946;28;20173;-80
2021/01/06 05:21:39;;;;;;;0.20;0.10;;;1.10;99.90;;;;;;4949677;28;20099;-80
2021/01/06 05:24:11;;;;;;;1.38;0.20;;;1.20;99.90;;;;;;4949515;28;20165;-80
2021/01/06 05:26:34;;;;;;;3.63;0.10;;;1.40;99.90;;;;;;4950972;28;20120;-80
2021/01/06 05:28:57;;;;;;;0.00;0.00;;;1.40;99.90;;;;;;4950931;28;20091;-80
2021/01/06 05:31:20;;;;;;;0.35;0.10;;;1.40;99.90;;;;;;4950785;28;20183;-79
2021/01/06 05:33:47;;;;;;;0.30;0.00;;;1.40;99.90;;;;;;4943807;28;20090;-80
2021/01/06 05:36:15;;;;;;;3.08;0.22;;;1.50;99.90;;;;;;4947837;28;20108;-80
2021/01/06 05:38:38;;;;;;;0.10;0.10;;;1.50;99.90;;;;;;4950173;28;20572;-78
2021/01/06 05:41:02;;;;;;;10.38;0.20;;;;;;;;;;4950904;28;20092;-80
2021/01/06 05:43:41;;;;;;;0.20;0.00;;;1.50;99.90;;;;;;4949974;28;20131;-80
2021/01/06 05:46:09;;;;;;;0.70;0.20;;;1.40;99.90;;;;;;4947120;28;20396;-80
2021/01/06 05:48:37;;;;;;;0.10;0.10;;;1.50;99.90;;;;;;4949654;28;20158;-80
2021/01/06 05:51:04;;;;;;;1.38;0.10;;;1.50;99.90;;;;;;4947303;28;20099;-79
2021/01/06 05:53:35;;;;;;;0.77;0.03;;;1.60;99.90;;;;;;4948261;28;23988;-79
2021/01/06 05:56:05;;;;;;;0.35;0.10;;;1.60;99.90;;;;;;4948962;28;20081;-80
2021/01/06 05:58:33;;;;;;;0.25;0.10;;;1.60;99.90;;;;;;4947316;28;20173;-79
2021/01/06 06:01:14;;;;;;;10.10;0.32;;;1.60;99.90;;;;;;4948122;28;20444;-79
2021/01/06 06:03:49;;;;;;;0.50;0.20;;;1.70;99.90;;;;;;4947464;28;20615;-80
2021/01/06 06:06:41;;;;;;;3.10;0.13;;;1.70;99.90;;;;;;4949255;27;20088;-80
2021/01/06 06:09:10;;;;;;;0.55;0.20;;;1.90;99.90;;;;;;4940031;28;20175;-79
2021/01/06 06:12:06;;;;;;;1.77;0.22;;;1.90;99.90;;;;;;4940937;28;20186;-78
2021/01/06 06:15:01;;;;;;;0.70;0.28;;;1.90;99.90;;;;;;4949094;28;20099;-79
2021/01/06 06:17:37;;;;;;;0.85;0.10;;;2.10;99.90;;;;;;4947597;28;20699;-79
2021/01/06 06:20:36;;;;;;;3.28;0.20;;;2.10;99.90;;;;;;4947187;28;20087;-79
2021/01/06 06:23:14;;;;;;;0.82;0.10;;;2.20;99.90;;;;;;4936578;28;20097;-79
2021/01/06 06:25:41;;;;;;;0.20;0.10;;;2.20;99.90;;;;;;4936944;28;20170;-78
2021/01/06 06:28:14;;;;;;;0.20;0.20;;;2.30;99.90;;;;;;4951009;28;20099;-80
2021/01/06 06:30:52;;;;;;;0.57;0.15;;;2.30;99.90;;;;;;4947706;28;20097;-78
2021/01/06 06:33:18;;;;;;;0.47;0.20;;;2.30;99.90;;;;;;4949236;28;20087;-78
2021/01/06 06:35:48;;;;;;;2.50;0.20;;;2.30;99.90;;;;;;4938457;28;20174;-79
2021/01/06 06:38:11;;;;;;;0.85;0.20;;;2.30;99.90;;;;;;4947869;28;20140;-79
2021/01/06 06:40:57;;;;;;;0.30;0.25;;;2.30;99.90;;;;;;4948164;28;20187;-78
2021/01/06 06:43:32;;;;;;;0.68;0.15;;;2.30;99.90;;;;;;4947020;28;20530;-79
2021/01/06 06:46:23;;;;;;;0.23;0.20;;;2.30;99.90;;;;;;4949321;28;20451;-79
2021/01/06 06:49:07;;;;;;;0.28;0.10;;;2.30;99.90;;;;;;4948598;28;20116;-79
2021/01/06 06:51:36;;;;;;;0.28;0.20;;;2.30;99.90;;;;;;4947480;28;20087;-79
2021/01/06 06:54:06;;;;;;;1.17;0.20;;;2.30;99.90;;;;;;4947715;28;20091;-80
2021/01/06 06:56:39;;;;;;;0.57;0.13;;;2.20;99.90;;;;;;4948570;28;20102;-79
2021/01/06 06:59:10;;;;;;;0.17;0.17;;;2.30;99.90;;;;;;4919964;28;20101;-79
2021/01/06 07:01:38;;;;;;;0.13;0.13;;;2.20;99.90;;;;;;4931108;28;20170;-79
2021/01/06 07:04:05;;;;;;;0.43;0.20;;;2.20;99.90;;;;;;4937378;28;20090;-79
2021/01/06 07:06:29;;;;;;;0.10;0.10;;;2.20;99.90;;;;;;4936780;28;20597;-79
2021/01/06 07:08:55;;;;;;;1.00;0.30;;;2.10;99.90;;;;;;4934622;28;20569;-79
2021/01/06 07:11:26;;;;;;;0.98;0.30;;;2.10;99.90;;;;;;4931964;28;20099;-78
2021/01/06 07:13:56;;;;;;;0.20;0.10;;;2.10;99.90;;;;;;4930045;28;20086;-79
2021/01/06 07:16:25;;;;;;;2.25;0.32;;;2.00;99.90;;;;;;4931181;28;20139;-79
2021/01/06 07:18:52;;;;;;;0.13;0.10;;;2.00;99.90;;;;;;4946997;28;20091;-79
2021/01/06 07:21:22;;;;;;;3.85;0.20;;;2.00;99.90;;;;;;4932231;28;20179;-79
2021/01/06 07:23:50;;;;;;;2.78;0.17;;;2.00;99.90;;;;;;4947425;28;20184;-79
2021/01/06 07:26:16;;;;;;;0.20;0.10;;;2.00;99.90;;;;;;4943852;28;20169;-79
2021/01/06 07:28:39;;;;;;;0.57;0.10;;;1.90;99.90;;;;;;4947864;28;20168;-79
2021/01/06 07:31:11;;;;;;;0.50;0.20;;;1.90;99.90;;;;;;4947633;28;20440;-78
2021/01/06 07:33:38;;;;;;;0.40;0.15;;;1.90;99.90;;;;;;4948877;28;20598;-78
2021/01/06 07:36:24;;;;;;;3.97;0.22;;;1.90;99.90;;;;;;4950207;27;20090;-79
2021/01/06 07:38:48;;;;;;;0.82;0.20;;;1.80;99.90;;;;;;4940105;28;20098;-80
2021/01/06 07:41:13;;;;;;;0.10;0.10;;;1.90;99.90;;;;;;4947070;28;20169;-79
2021/01/06 07:43:42;;;;;;;0.10;0.10;;;1.80;99.90;;;;;;4945958;28;20498;-78
2021/01/06 07:46:18;;;;;;;1.17;0.15;;;1.80;99.90;;;;;;4945778;28;20426;-79
2021/01/06 07:49:06;;;;;;;0.10;0.10;;;1.80;99.90;;;;;;4944751;28;20081;-80
2021/01/06 07:51:39;;;;;;;1.42;0.30;;;1.80;99.90;;;;;;4942308;28;20103;-78
2021/01/06 07:54:14;;;;;;;0.73;0.30;;;1.70;99.90;;;;;;4948095;28;20548;-78
2021/01/06 07:56:46;;;;;;;0.97;0.30;;;1.70;99.90;;;;;;4947303;28;20094;-78
2021/01/06 07:59:19;;;;;;;0.50;0.20;;;1.60;99.90;;;;;;4947234;28;20552;-78
2021/01/06 08:01:45;;;;;;;0.20;0.20;;;1.60;99.90;;;;;;4947735;28;20115;-78
2021/01/06 08:04:14;;;;;;;0.43;0.17;;;1.50;99.90;;;;;;4947776;28;20633;-79
2021/01/06 08:06:45;;;;;;;0.15;0.10;;;1.40;99.90;;;;;;4948493;27;20174;-79
2021/01/06 08:09:07;;;;;;;0.30;0.13;;;1.40;99.90;;;;;;4933545;28;20451;-79
2021/01/06 08:11:31;;;;;;;0.32;0.32;;;1.30;99.90;;;;;;4945457;28;20531;-79
2021/01/06 08:14:02;;;;;;;0.80;0.20;;;1.30;99.90;;;;;;4948329;28;20099;-79
2021/01/06 08:16:39;;;;;;;1.95;0.20;;;1.30;99.90;;;;;;4944713;28;20295;-78
2021/01/06 08:19:17;;;;;;;0.20;0.20;;;1.20;99.90;;;;;;4947760;28;20139;-78
2021/01/06 08:21:51;;;;;;;0.20;0.10;;;1.20;99.90;;;;;;4947284;28;20088;-78
2021/01/06 08:24:24;;;;;;;0.10;0.10;;;1.20;99.90;;;;;;4945729;28;20090;-79
2021/01/06 08:26:49;;;;;;;0.15;0.15;;;1.20;99.90;;;;;;4947347;28;20088;-78
2021/01/06 08:29:17;;;;;;;0.85;0.38;;;1.20;99.90;;;;;;4946619;28;20166;-79
2021/01/06 08:31:40;;;;;;;0.40;0.15;;;1.10;99.90;;;;;;4948152;28;20097;-79
2021/01/06 08:34:04;;;;;;;0.43;0.28;;;1.10;99.90;;;;;;4947919;28;20092;-79
2021/01/06 08:36:32;;;;;;;0.77;0.30;;;1.00;99.90;;;;;;4948785;28;20449;-78
2021/01/06 08:39:14;;;;;;;0.88;0.45;;;1.00;99.90;;;;;;4947125;28;20179;-79
2021/01/06 08:41:37;;;;;;;1.00;0.45;;;1.00;99.90;;;;;;4919200;28;20177;-79
2021/01/06 08:44:01;;;;;;;0.98;0.30;;;1.00;99.90;;;;;;4926073;28;20528;-80
2021/01/06 08:46:26;;;;;;;2.33;0.68;;;1.00;99.90;;;;;;4922115;28;20109;-79
2021/01/06 08:48:49;;;;;;;0.28;0.28;;;1.00;99.90;;;;;;4930466;28;20124;-80
2021/01/06 08:51:14;;;;;;;0.80;0.20;;;1.00;99.90;;;;;;4929831;28;20182;-79
2021/01/06 08:53:40;;;;;;;0.68;0.40;;;0.90;99.90;;;;;;4944975;28;20100;-79
2021/01/06 08:56:09;;;;;;;1.02;0.43;;;1.00;99.90;;;;;;4946972;28;20090;-79
2021/01/06 08:58:44;;;;;;;3.28;0.43;;;1.00;99.90;;;;;;4946817;28;20092;-78
2021/01/06 09:01:42;;;;;;;1.25;0.40;;;0.90;99.90;;;;;;4922602;28;20113;-79
2021/01/06 09:04:28;;;;;;;0.50;0.30;;;0.90;99.90;;;;;;4898336;28;20097;-80
2021/01/06 09:07:27;;;;;;;1.15;0.50;;;0.90;99.90;;;;;;4884639;28;20091;-80
2021/01/06 09:10:30;;;;;;;0.28;0.28;;;0.90;99.90;;;;;;4887452;28;20538;-80
2021/01/06 09:13:30;;;;;;;1.85;0.52;;;0.90;99.90;;;;;;4878193;28;20147;-80
2021/01/06 09:16:01;;;;;;;1.15;0.60;;;0.90;99.90;;;;;;4879895;28;25788;-80
2021/01/06 09:18:31;;;;;;;1.30;0.40;;;0.90;99.90;;;;;;4887739;28;20145;-80
2021/01/06 09:21:31;;;;;;;2.05;0.68;;;0.90;99.90;;;;;;4877643;28;20093;-80
2021/01/06 09:24:23;;;;;;;1.45;0.50;;;0.90;99.90;;;;;;4865486;28;20094;-80
2021/01/06 09:27:08;;;;;;;0.38;0.30;;;0.90;99.90;;;;;;4880344;28;20088;-81
2021/01/06 09:29:51;;;;;;;1.80;0.35;;;1.00;99.90;;;;;;4885237;28;20564;-80
2021/01/06 09:45:08;;;;;;;0.60;0.47;;;1.10;99.90;;;;;;4882556;28;20514;-81
2021/01/06 09:57:41;;;;;;;1.85;1.05;;;1.20;99.90;;;;;;4873360;28;20630;-80
2021/01/06 10:28:18;;;;;;;1.55;0.80;;;1.50;99.90;;;;;;4844910;28;20097;-78
2021/01/06 10:31:05;;;;;;;1.92;0.90;;;1.50;99.90;;;;;;4843733;28;20475;-78
2021/01/06 10:33:30;;;;;;;2.58;0.80;;;1.50;99.90;;;;;;4838685;28;20443;-78
2021/01/06 10:36:17;;;;;;;1.35;0.80;;;1.50;99.90;;;;;;4845249;28;20214;-77
2021/01/06 10:39:20;;;;;;;1.65;0.80;;;1.60;99.90;;;;;;4820816;28;20176;-78
2021/01/06 10:42:22;;;;;;;2.83;1.10;;;1.60;99.90;;;;;;4857950;28;20094;-79
2021/01/06 10:44:56;;;;;;;2.08;0.90;;;1.60;99.90;;;;;;4842404;28;20091;-79
2021/01/06 10:47:46;;;;;;;1.88;0.90;;;1.70;99.90;;;;;;4844795;28;20534;-78
2021/01/06 10:50:40;;;;;;;3.67;1.27;;;1.70;99.90;;;;;;4894049;28;20174;-78
2021/01/06 10:53:07;;;;;;;1.40;0.73;;;1.80;99.90;;;;;;4894787;28;20092;-79
2021/01/06 10:55:41;;;;;;;2.00;0.88;;;1.80;99.90;;;;;;4890796;28;20115;-78
2021/01/06 10:58:14;;;;;;;1.38;0.90;;;1.70;99.90;;;;;;4894569;28;20531;-78
2021/01/06 11:00:52;;;;;;;1.80;1.00;;;1.80;99.90;;;;;;4895019;28;20456;-78
2021/01/06 11:03:50;;;;;;;1.33;0.80;;;1.80;99.90;;;;;;4877059;28;20095;-77
2021/01/06 11:06:24;;;;;;;3.00;0.98;;;1.80;99.90;;;;;;4896744;28;20178;-78
2021/01/06 11:09:18;;;;;;;2.00;1.20;;;1.80;99.90;;;;;;4891468;28;20139;-77
2021/01/06 11:12:13;;;;;;;2.25;1.05;;;1.80;99.90;;;;;;4884513;28;20519;-78
2021/01/06 11:15:02;;;;;;;2.95;1.27;;;1.80;99.90;;;;;;4886690;28;20118;-78
2021/01/06 11:17:31;;;;;;;2.33;1.33;;;1.90;99.90;;;;;;4888912;28;20168;-77
2021/01/06 11:19:57;;;;;;;2.20;1.13;;;1.90;99.90;;;;;;4892534;28;20176;-78
2021/01/06 11:22:30;;;;;;;2.53;1.08;;;1.90;99.90;;;;;;4886234;28;20174;-78
2021/01/06 11:24:55;;;;;;;5.35;1.65;;;1.90;99.90;;;;;;4896054;28;20551;-78
2021/01/06 11:27:45;;;;;;;2.70;1.38;;;2.00;99.90;;;;;;4898059;28;20192;-77
2021/01/06 11:30:20;;;;;;;3.55;1.60;;;2.00;99.90;;;;;;4886931;28;20137;-79
2021/01/06 11:32:44;;;;;;;4.18;1.80;;;2.00;99.90;;;;;;4893276;28;20097;-77
2021/01/06 11:35:29;;;;;;;5.60;1.83;;;2.10;99.90;;;;;;4888583;28;20122;-78
2021/01/06 11:37:53;;;;;;;4.65;2.08;;;2.10;99.90;;;;;;4873916;28;20091;-79
2021/01/06 11:40:48;;;;;;;5.35;1.67;;;2.10;99.90;;;;;;4876592;28;20171;-77
2021/01/06 11:43:35;;;;;;;6.13;2.30;;;2.20;99.90;;;;;;4887608;28;20088;-78
2021/01/06 11:45:59;;;;;;;7.72;2.30;;;2.20;99.90;;;;;;4868125;28;20111;-77
2021/01/06 11:48:33;;;;;;;3.17;1.90;;;2.20;99.90;;;;;;4880902;28;20091;-78
2021/01/06 11:51:18;;;;;;;6.63;2.10;;;2.20;99.90;;;;;;4882153;28;20555;-78
2021/01/06 11:53:45;;;;;;;4.68;2.20;;;2.20;99.90;;;;;;4876038;28;20088;-78
2021/01/06 11:56:18;;;;;;;4.30;2.08;;;2.20;99.90;;;;;;4873905;28;20119;-78
2021/01/06 11:59:16;;;;;;;4.28;2.25;;;2.20;99.90;;;;;;4881591;28;20099;-77
2021/01/06 12:02:06;;;;;;;3.83;2.08;;;2.30;99.90;;;;;;4875793;28;20177;-78
2021/01/06 12:05:08;;;;;;;5.20;2.22;;;2.30;99.90;;;;;;4880133;28;20137;-77
2021/01/06 12:07:36;;;;;;;4.90;2.35;;;2.30;99.90;;;;;;4871518;28;20153;-77
2021/01/06 12:10:22;;;;;;;5.65;2.72;;;2.40;99.90;;;;;;4879197;28;20528;-77
2021/01/06 12:12:56;;;;;;;9.77;2.67;;;2.30;99.90;;;;;;4879038;28;20100;-78
2021/01/06 12:15:46;;;;;;;6.53;2.85;;;2.40;99.90;;;;;;4882124;28;20193;-78
2021/01/06 12:18:25;;;;;;;5.53;2.63;;;2.40;99.90;;;;;;4881600;28;20196;-77
2021/01/06 12:20:50;;;;;;;9.95;3.55;;;2.30;99.90;;;;;;4876806;28;20263;-78
2021/01/06 12:23:25;;;;;;;5.57;2.87;;;2.30;99.90;;;;;;4881900;28;20201;-77
2021/01/06 12:25:51;;;;;;;5.30;2.93;;;2.30;99.90;;;;;;4884959;28;20577;-77
2021/01/06 12:28:35;;;;;;;6.90;3.30;;;2.30;99.90;;;;;;4878521;28;20186;-78
2021/01/06 12:31:14;;;;;;;6.93;3.55;;;2.30;99.90;;;;;;4878631;28;20173;-78
2021/01/06 12:33:43;;;;;;;8.15;3.90;;;2.30;99.90;;;;;;4879037;28;20609;-79
2021/01/06 12:36:21;;;;;;;8.57;3.70;;;2.30;99.90;;;;;;4880272;28;20162;-78
2021/01/06 12:38:45;;;;;;;9.90;4.15;;;2.30;99.90;;;;;;4878765;28;20492;-78
2021/01/06 12:41:16;;;;;;;9.50;4.28;;;2.40;99.90;;;;;;4874197;28;20211;-77
2021/01/06 12:43:45;;;;;;;7.57;3.65;;;2.40;99.90;;;;;;4870498;28;20107;-77
2021/01/06 12:46:26;;;;;;;8.95;4.15;;;2.40;99.90;;;;;;4871743;28;20087;-78
2021/01/06 12:49:00;;;;;;;7.32;3.97;;;2.40;99.90;;;;;;4883049;28;20103;-78
2021/01/06 12:51:28;;;;;;;10.75;3.75;;;2.40;99.90;;;;;;4878851;28;20137;-77
2021/01/06 12:53:59;;;;;;;8.20;4.40;;;2.40;99.90;;;;;;4876800;28;20131;-77
2021/01/06 12:56:31;;;;;;;8.80;4.80;;;2.40;99.90;;;;;;4884248;28;20423;-78
2021/01/06 12:59:05;;;;;;;8.55;4.90;;;2.40;99.90;;;;;;4891557;28;20137;-77
2021/01/06 13:01:33;;;;;;;10.68;5.10;;;2.40;99.90;;;;;;4878711;28;20107;-79
2021/01/06 13:04:04;;;;;;;9.52;4.28;;;2.40;99.90;;;;;;4862121;28;20135;-78
2021/01/06 13:06:42;;;;;;;9.60;5.20;;;2.40;99.90;;;;;;4876356;28;20097;-78
2021/01/06 13:09:15;;;;;;;10.93;4.85;;;2.40;99.90;;;;;;4877255;28;20088;-77
2021/01/06 13:11:57;;;;;;;9.65;4.40;;;2.50;99.90;;;;;;4876927;28;20546;-79
2021/01/06 13:14:28;;;;;;;9.77;5.13;;;2.40;99.90;;;;;;4881909;28;20092;-77
2021/01/06 13:16:56;;;;;;;10.73;5.10;;;2.40;99.90;;;;;;4872753;28;20158;-79
2021/01/06 13:19:36;;;;;;;10.98;5.63;;;2.40;99.90;;;;;;4877061;28;20168;-77
2021/01/06 13:22:25;;;;;;;10.90;4.88;;;2.40;99.90;;;;;;4880038;28;20126;-77
2021/01/06 13:25:08;;;;;;;10.45;5.45;;;2.40;99.90;;;;;;4876262;28;20598;-77
2021/01/06 13:27:54;;;;;;;15.27;5.80;;;2.40;99.90;;;;;;4877372;28;20089;-78
2021/01/06 13:30:21;;;;;;;13.80;5.97;;;2.30;99.90;;;;;;4881267;28;20099;-77
2021/01/06 13:32:50;;;;;;;12.30;5.70;;;2.40;99.90;;;;;;4873663;28;20497;-77
2021/01/06 13:35:22;;;;;;;10.90;5.63;;;2.30;99.90;;;;;;4877488;28;20175;-77
2021/01/06 13:37:48;;;;;;;9.85;5.20;;;2.40;99.90;;;;;;4860223;28;20119;-79
2021/01/06 13:40:16;;;;;;;;;;;2.40;99.90;;;;;;4884540;28;20137;-78
2021/01/06 13:42:56;;;;;;;10.98;5.05;;;2.40;99.90;;;;;;4873718;28;20400;-79
2021/01/06 13:45:25;;;;;;;11.07;5.45;;;2.30;99.90;;;;;;4879661;28;20091;-78
2021/01/06 13:47:52;;;;;;;16.48;7.50;;;2.30;99.90;;;;;;4877835;28;20111;-78
2021/01/06 13:50:31;;;;;;;10.82;5.00;;;2.40;99.90;;;;;;4881412;28;20232;-79
2021/01/06 13:53:00;;;;;;;11.15;5.03;;;2.40;99.90;;;;;;4874521;28;20179;-78
2021/01/06 13:55:39;;;;;;;9.43;4.65;;;2.30;99.90;;;;;;4886545;28;20085;-77
2021/01/06 13:58:10;;;;;;;9.68;5.07;;;2.30;99.90;;;;;;4885010;28;20091;-78
2021/01/06 14:00:48;;;;;;;15.73;8.30;;;2.30;99.90;;;;;;4880081;28;20088;-78
2021/01/06 14:03:35;;;;;;;20.58;10.32;;;2.30;99.90;;;;;;4879605;28;20435;-79
2021/01/06 14:06:07;;;;;;;;;;;2.30;99.90;;;;;;4870391;28;20178;-78
2021/01/06 14:08:43;;;;;;;11.13;4.68;;;2.30;99.90;;;;;;4881791;28;19991;-78
2021/01/06 14:11:27;;;;;;;12.82;4.03;;;2.20;99.90;;;;;;4880068;28;20091;-78